createdAt,value
2023-03-29T00:01:07.267Z,52.07
2023-03-29T00:03:36.444Z,52.12
2023-03-29T00:06:06.258Z,52.01
2023-03-29T00:08:35.664Z,52.28
2023-03-29T00:11:05.231Z,52.33
2023-03-29T00:13:34.451Z,52.23
2023-03-29T00:16:03.817Z,52.07
2023-03-29T00:18:32.872Z,52.26
2023-03-29T00:21:02.500Z,52.28
2023-03-29T00:23:31.981Z,52.32
2023-03-29T00:26:01.268Z,52.27
2023-03-29T00:28:30.877Z,52.31
2023-03-29T00:31:05.632Z,52.28
2023-03-29T00:33:35.155Z,52.37
2023-03-29T00:36:04.623Z,52.48
2023-03-29T00:38:33.787Z,52.64
2023-03-29T00:41:04.255Z,52.76
2023-03-29T00:43:47.037Z,52.83
2023-03-29T00:46:16.111Z,52.83
2023-03-29T00:48:45.223Z,52.65
2023-03-29T00:51:15.263Z,52.48
2023-03-29T00:53:46.278Z,52.28
2023-03-29T00:56:19.056Z,52.30
2023-03-29T00:58:52.006Z,52.19
2023-03-29T01:01:23.836Z,52.44
2023-03-29T01:03:55.404Z,52.23
2023-03-29T01:06:26.930Z,52.28
2023-03-29T01:08:57.878Z,52.31
2023-03-29T01:11:28.606Z,52.26
2023-03-29T01:13:59.072Z,52.54
2023-03-29T01:16:29.212Z,52.73
2023-03-29T01:18:58.805Z,52.83
2023-03-29T01:21:29.820Z,52.82
2023-03-29T01:24:07.811Z,53.05
2023-03-29T01:26:42.495Z,53.09
2023-03-29T01:29:14.099Z,53.19
2023-03-29T01:31:45.234Z,53.28
2023-03-29T01:34:16.960Z,53.47
2023-03-29T01:36:48.612Z,53.50
2023-03-29T01:39:17.689Z,53.68
2023-03-29T01:41:52.555Z,53.66
2023-03-29T01:44:27.664Z,53.72
2023-03-29T01:47:00.795Z,53.74
2023-03-29T01:49:32.150Z,53.74
2023-03-29T01:52:04.476Z,53.62
2023-03-29T01:54:35.592Z,53.80
2023-03-29T01:57:05.542Z,53.77
2023-03-29T01:59:35.902Z,54.15
2023-03-29T02:02:08.063Z,54.18
2023-03-29T02:04:39.992Z,54.00
2023-03-29T02:07:10.283Z,53.89
2023-03-29T02:09:40.249Z,54.04
2023-03-29T02:12:10.201Z,54.03
2023-03-29T02:14:39.340Z,54.26
2023-03-29T02:17:16.681Z,54.16
2023-03-29T02:19:46.922Z,54.47
2023-03-29T02:22:19.299Z,54.78
2023-03-29T02:24:49.370Z,54.99
2023-03-29T02:27:18.460Z,55.31
2023-03-29T02:29:47.500Z,55.55
2023-03-29T02:32:20.362Z,55.39
2023-03-29T02:34:53.754Z,55.35
2023-03-29T02:37:25.420Z,55.34
2023-03-29T02:39:54.564Z,55.21
2023-03-29T02:42:24.708Z,55.11
2023-03-29T02:44:56.058Z,54.80
2023-03-29T02:47:28.716Z,54.85
2023-03-29T02:49:57.941Z,54.82
2023-03-29T02:52:29.131Z,54.82
2023-03-29T02:54:58.499Z,54.75
2023-03-29T02:57:27.591Z,54.73
2023-03-29T03:01:22.109Z,54.75
2023-03-29T03:03:51.316Z,54.83
2023-03-29T03:06:20.397Z,54.73
2023-03-29T03:08:49.460Z,54.71
2023-03-29T03:11:18.614Z,54.61
2023-03-29T03:13:47.682Z,54.53
2023-03-29T03:16:16.812Z,54.52
2023-03-29T03:18:45.976Z,54.50
2023-03-29T03:21:15.060Z,54.57
2023-03-29T03:23:44.156Z,54.46
2023-03-29T03:26:13.466Z,54.41
2023-03-29T03:28:42.520Z,54.43
2023-03-29T03:31:11.838Z,54.35
2023-03-29T03:33:40.906Z,54.31
2023-03-29T03:36:10.701Z,54.22
2023-03-29T03:38:39.814Z,54.31
2023-03-29T03:41:09.126Z,54.11
2023-03-29T03:43:38.444Z,54.08
2023-03-29T03:46:07.576Z,54.04
2023-03-29T03:48:36.657Z,54.00
2023-03-29T03:51:06.099Z,53.98
2023-03-29T03:53:35.252Z,54.08
2023-03-29T03:56:04.569Z,53.93
2023-03-29T03:58:33.741Z,53.93
2023-03-29T04:01:03.585Z,54.00
2023-03-29T04:03:32.948Z,54.05
2023-03-29T04:06:02.600Z,54.14
2023-03-29T04:08:31.697Z,54.06
2023-03-29T04:11:01.434Z,54.00
2023-03-29T04:13:31.075Z,54.02
2023-03-29T04:16:01.500Z,54.00
2023-03-29T04:18:31.243Z,54.17
2023-03-29T04:21:00.662Z,54.22
2023-03-29T04:23:30.026Z,54.31
2023-03-29T04:25:59.103Z,54.24
2023-03-29T04:28:28.218Z,54.32
2023-03-29T04:30:57.301Z,54.44
2023-03-29T04:33:26.409Z,54.54
2023-03-29T04:35:55.572Z,54.35
2023-03-29T04:38:24.624Z,54.33
2023-03-29T04:40:53.681Z,54.36
2023-03-29T04:43:22.911Z,54.29
2023-03-29T04:45:52.143Z,54.20
2023-03-29T04:48:21.207Z,54.25
2023-03-29T04:50:50.341Z,54.44
2023-03-29T04:53:19.533Z,54.30
2023-03-29T04:55:48.867Z,54.34
2023-03-29T04:58:19.479Z,54.18
2023-03-29T05:00:49.769Z,54.25
2023-03-29T05:03:18.833Z,54.16
2023-03-29T05:05:48.022Z,54.30
2023-03-29T05:08:17.158Z,54.36
2023-03-29T05:10:46.327Z,54.31
2023-03-29T05:13:15.433Z,54.34
2023-03-29T05:15:44.479Z,54.31
2023-03-29T05:18:13.553Z,54.36
2023-03-29T05:20:45.764Z,54.30
2023-03-29T05:23:14.835Z,54.31
2023-03-29T05:25:44.006Z,54.28
2023-03-29T05:28:13.024Z,54.31
2023-03-29T05:30:42.285Z,54.24
2023-03-29T05:33:11.525Z,54.37
2023-03-29T05:35:40.625Z,54.31
2023-03-29T05:38:09.841Z,54.32
2023-03-29T05:40:38.951Z,54.28
2023-03-29T05:43:08.021Z,54.30
2023-03-29T05:45:37.140Z,54.26
2023-03-29T05:48:06.477Z,54.29
2023-03-29T05:50:35.624Z,54.21
2023-03-29T05:53:04.779Z,54.29
2023-03-29T05:55:34.226Z,54.13
2023-03-29T05:58:03.432Z,54.01
2023-03-29T06:00:32.530Z,53.93
2023-03-29T06:03:13.316Z,53.67
2023-03-29T06:05:49.460Z,53.69
2023-03-29T06:08:18.812Z,53.63
2023-03-29T06:10:47.883Z,53.54
2023-03-29T06:13:17.020Z,53.70
2023-03-29T06:15:46.057Z,53.67
2023-03-29T06:18:15.118Z,53.42
2023-03-29T06:20:47.419Z,53.37
2023-03-29T06:23:16.827Z,53.24
2023-03-29T06:25:46.073Z,53.30
2023-03-29T06:28:15.122Z,53.29
2023-03-29T06:30:44.822Z,53.16
2023-03-29T06:33:14.080Z,53.13
2023-03-29T06:35:43.516Z,53.02
2023-03-29T06:38:12.713Z,53.04
2023-03-29T06:40:42.084Z,53.21
2023-03-29T06:43:11.208Z,53.11
2023-03-29T06:45:40.504Z,53.22
2023-03-29T06:48:09.542Z,53.13
2023-03-29T06:50:38.641Z,53.09
2023-03-29T06:53:07.828Z,53.15
2023-03-29T06:55:36.910Z,53.19
2023-03-29T06:58:05.919Z,52.76
2023-03-29T07:00:35.746Z,52.58
2023-03-29T07:03:06.862Z,52.67
2023-03-29T07:05:36.154Z,52.62
2023-03-29T07:08:05.449Z,52.74
2023-03-29T07:10:36.611Z,52.69
2023-03-29T07:13:06.599Z,52.62
2023-03-29T07:15:35.833Z,52.50
2023-03-29T07:18:05.093Z,52.38
2023-03-29T07:20:34.452Z,52.30
2023-03-29T07:23:03.646Z,52.64
2023-03-29T07:25:32.704Z,52.74
2023-03-29T07:28:01.911Z,52.67
2023-03-29T07:30:32.530Z,52.10
2023-03-29T07:33:01.952Z,51.49
2023-03-29T07:35:34.419Z,51.05
2023-03-29T07:38:03.824Z,50.74
2023-03-29T07:40:32.937Z,50.76
2023-03-29T07:43:01.976Z,50.66
2023-03-29T07:45:31.176Z,51.00
2023-03-29T07:48:00.659Z,50.51
2023-03-29T07:50:29.765Z,50.31
2023-03-29T07:52:58.850Z,50.25
2023-03-29T07:55:28.046Z,50.35
2023-03-29T07:57:57.088Z,50.37
2023-03-29T08:00:27.271Z,50.05
2023-03-29T08:02:56.496Z,50.01
2023-03-29T08:05:40.158Z,49.93
2023-03-29T08:08:10.799Z,50.25
2023-03-29T08:10:40.023Z,50.13
2023-03-29T08:13:09.489Z,49.47
2023-03-29T08:15:39.397Z,48.72
2023-03-29T08:18:08.694Z,48.38
2023-03-29T08:20:37.918Z,48.10
2023-03-29T08:23:07.212Z,48.50
2023-03-29T08:25:36.248Z,48.56
2023-03-29T08:28:05.382Z,47.88
2023-03-29T08:30:34.476Z,47.47
2023-03-29T08:33:04.215Z,47.57
2023-03-29T08:35:33.385Z,47.19
2023-03-29T08:38:02.497Z,47.08
2023-03-29T08:40:31.564Z,45.64
2023-03-29T08:43:07.088Z,45.69
2023-03-29T08:45:38.921Z,46.82
2023-03-29T08:48:15.770Z,46.78
2023-03-29T08:50:46.881Z,47.18
2023-03-29T08:53:17.731Z,46.57
2023-03-29T08:55:48.360Z,46.15
2023-03-29T08:58:18.552Z,45.84
2023-03-29T09:00:50.532Z,45.96
2023-03-29T09:03:22.082Z,44.66
2023-03-29T09:05:53.545Z,45.10
2023-03-29T09:08:23.165Z,45.01
2023-03-29T09:11:02.465Z,44.23
2023-03-29T09:13:39.163Z,44.63
2023-03-29T09:16:13.293Z,43.97
2023-03-29T09:18:49.203Z,44.32
2023-03-29T09:21:21.788Z,43.60
2023-03-29T09:24:05.621Z,43.54
2023-03-29T09:26:39.631Z,44.40
2023-03-29T09:29:19.581Z,44.97
2023-03-29T09:31:49.667Z,44.52
2023-03-29T09:34:21.897Z,44.25
2023-03-29T09:36:52.723Z,43.23
2023-03-29T09:39:22.478Z,43.31
2023-03-29T09:41:53.628Z,43.12
2023-03-29T09:44:30.984Z,43.01
2023-03-29T09:47:03.001Z,42.65
2023-03-29T09:49:34.584Z,41.96
2023-03-29T09:52:05.932Z,42.51
2023-03-29T09:54:35.413Z,42.67
2023-03-29T09:57:05.354Z,42.44
2023-03-29T09:59:35.810Z,41.16
2023-03-29T10:02:08.129Z,41.39
2023-03-29T10:04:37.331Z,41.49
2023-03-29T10:07:07.501Z,41.53
2023-03-29T10:09:36.674Z,41.12
2023-03-29T10:12:06.889Z,41.51
2023-03-29T10:14:37.324Z,41.17
2023-03-29T10:17:12.881Z,40.91
2023-03-29T10:19:47.637Z,40.76
2023-03-29T10:22:19.135Z,40.30
2023-03-29T10:24:52.201Z,39.98
2023-03-29T10:27:22.506Z,41.09
2023-03-29T10:29:52.026Z,41.02
2023-03-29T10:32:26.539Z,41.01
2023-03-29T10:34:59.694Z,40.77
2023-03-29T10:37:29.009Z,40.87
2023-03-29T10:39:58.121Z,40.18
2023-03-29T10:42:28.141Z,41.08
2023-03-29T10:44:58.081Z,39.30
2023-03-29T10:47:31.250Z,39.66
2023-03-29T10:50:00.335Z,39.62
2023-03-29T10:52:29.566Z,40.08
2023-03-29T10:54:58.781Z,39.30
2023-03-29T10:57:32.543Z,39.79
2023-03-29T11:00:06.196Z,38.68
2023-03-29T11:02:46.056Z,38.69
2023-03-29T11:05:19.309Z,37.99
2023-03-29T11:07:53.164Z,38.31
2023-03-29T11:10:31.520Z,38.49
2023-03-29T11:13:05.145Z,38.17
2023-03-29T11:15:41.098Z,38.39
2023-03-29T11:18:36.019Z,38.97
2023-03-29T11:21:10.771Z,38.60
2023-03-29T11:23:45.322Z,39.20
2023-03-29T11:26:17.185Z,39.76
2023-03-29T11:28:50.097Z,39.51
2023-03-29T11:31:24.671Z,39.24
2023-03-29T11:33:58.801Z,39.01
2023-03-29T11:36:32.606Z,39.63
2023-03-29T11:39:04.843Z,39.70
2023-03-29T11:41:35.241Z,40.10
2023-03-29T11:44:06.194Z,39.60
2023-03-29T11:46:46.254Z,39.12
2023-03-29T11:49:19.120Z,38.84
2023-03-29T11:51:50.443Z,39.97
2023-03-29T11:54:22.410Z,39.23
2023-03-29T11:56:55.411Z,39.61
2023-03-29T11:59:28.619Z,40.06
2023-03-29T12:02:02.120Z,39.86
2023-03-29T12:04:37.321Z,39.91
2023-03-29T12:07:10.988Z,40.12
2023-03-29T12:09:43.404Z,38.61
2023-03-29T12:12:15.548Z,38.92
2023-03-29T12:15:01.095Z,39.47
2023-03-29T12:17:34.192Z,39.39
2023-03-29T12:20:06.859Z,39.33
2023-03-29T12:22:37.288Z,39.43
2023-03-29T12:25:11.866Z,39.11
2023-03-29T12:27:45.118Z,38.55
2023-03-29T12:30:24.976Z,38.33
2023-03-29T12:33:10.184Z,38.59
2023-03-29T12:35:47.779Z,38.58
2023-03-29T12:38:20.140Z,38.61
2023-03-29T12:40:55.501Z,39.22
2023-03-29T12:43:27.149Z,39.33
2023-03-29T12:46:01.139Z,39.63
2023-03-29T12:48:30.514Z,39.27
2023-03-29T12:51:00.799Z,39.24
2023-03-29T12:53:34.077Z,39.12
2023-03-29T12:56:36.445Z,39.15
2023-03-29T12:59:17.484Z,39.43
2023-03-29T13:01:57.183Z,39.32
2023-03-29T13:04:36.491Z,39.56
2023-03-29T13:07:06.112Z,39.00
2023-03-29T13:09:47.709Z,38.69
2023-03-29T13:12:22.782Z,38.60
2023-03-29T13:14:53.116Z,38.73
2023-03-29T13:17:26.100Z,38.96
2023-03-29T13:20:28.345Z,39.09
2023-03-29T13:23:04.919Z,39.15
2023-03-29T13:25:40.080Z,39.40
2023-03-29T13:28:14.813Z,39.90
2023-03-29T13:30:51.526Z,39.22
2023-03-29T13:33:29.065Z,39.41
2023-03-29T13:36:03.302Z,39.70
2023-03-29T13:38:32.577Z,39.66
2023-03-29T13:41:05.533Z,39.71
2023-03-29T13:43:36.529Z,39.60
2023-03-29T13:46:19.179Z,39.41
2023-03-29T13:48:51.914Z,39.52
2023-03-29T13:51:26.379Z,39.07
2023-03-29T13:53:58.360Z,38.89
2023-03-29T13:56:31.107Z,39.37
2023-03-29T13:59:02.377Z,39.55
2023-03-29T14:01:36.858Z,39.50
2023-03-29T14:04:10.007Z,40.13
2023-03-29T14:06:41.374Z,40.24
2023-03-29T14:09:12.783Z,40.75
2023-03-29T14:11:44.234Z,40.91
2023-03-29T14:14:13.503Z,41.15
2023-03-29T14:16:42.747Z,41.39
2023-03-29T14:19:15.188Z,41.39
2023-03-29T14:22:15.697Z,41.63
2023-03-29T14:24:37.773Z,41.84
2023-03-29T14:27:07.978Z,41.93
2023-03-29T14:29:37.186Z,42.13
2023-03-29T14:32:10.339Z,41.89
2023-03-29T14:34:39.913Z,42.15
2023-03-29T14:37:11.745Z,42.05
2023-03-29T14:39:41.090Z,42.18
2023-03-29T14:42:15.207Z,42.33
2023-03-29T14:44:44.928Z,42.40
2023-03-29T14:47:18.820Z,42.24
2023-03-29T14:49:48.131Z,42.28
2023-03-29T14:52:18.810Z,42.46
2023-03-29T14:54:50.296Z,42.75
2023-03-29T14:57:23.429Z,42.90
2023-03-29T14:59:54.032Z,43.24
2023-03-29T15:02:27.529Z,43.26
2023-03-29T15:04:58.205Z,43.40
2023-03-29T15:07:27.712Z,43.62
2023-03-29T15:09:57.481Z,44.06
2023-03-29T15:12:28.824Z,44.00
2023-03-29T15:14:58.655Z,44.24
2023-03-29T15:17:43.070Z,44.44
2023-03-29T15:20:18.904Z,44.48
2023-03-29T15:23:01.294Z,44.49
2023-03-29T15:25:33.922Z,44.65
2023-03-29T15:28:03.069Z,44.51
2023-03-29T15:30:36.491Z,44.19
2023-03-29T15:33:32.449Z,43.96
2023-03-29T15:36:02.471Z,44.14
2023-03-29T15:38:42.647Z,44.36
2023-03-29T15:41:14.735Z,44.59
2023-03-29T15:43:44.060Z,44.81
2023-03-29T15:46:13.260Z,44.92
2023-03-29T15:48:42.648Z,45.27
2023-03-29T15:51:12.012Z,45.40
2023-03-29T15:53:42.110Z,45.59
2023-03-29T15:56:16.143Z,45.84
2023-03-29T15:58:45.404Z,45.81
2023-03-29T16:01:19.520Z,46.26
2023-03-29T16:03:49.195Z,46.16
2023-03-29T16:06:18.329Z,46.26
2023-03-29T16:08:47.461Z,46.50
2023-03-29T16:11:19.239Z,46.82
2023-03-29T16:13:48.570Z,46.78
2023-03-29T16:16:17.729Z,47.15
2023-03-29T16:18:46.811Z,47.03
2023-03-29T16:21:17.538Z,47.09
2023-03-29T16:23:46.774Z,47.28
2023-03-29T16:26:16.454Z,47.54
2023-03-29T16:28:45.602Z,47.72
2023-03-29T16:31:14.805Z,47.72
2023-03-29T16:33:43.956Z,47.68
2023-03-29T16:36:15.322Z,48.01
2023-03-29T16:38:44.493Z,48.06
2023-03-29T16:41:15.134Z,48.03
2023-03-29T16:43:44.466Z,48.08
2023-03-29T16:46:17.372Z,48.37
2023-03-29T16:48:46.447Z,48.29
2023-03-29T16:51:15.596Z,48.40
2023-03-29T16:53:44.857Z,48.35
2023-03-29T16:56:14.215Z,48.72
2023-03-29T16:58:43.332Z,48.66
2023-03-29T17:01:13.545Z,48.83
2023-03-29T17:03:43.517Z,49.06
2023-03-29T17:06:12.747Z,49.00
2023-03-29T17:08:41.900Z,49.21
2023-03-29T17:11:11.205Z,49.17
2023-03-29T17:13:40.513Z,49.13
2023-03-29T17:16:09.956Z,49.53
2023-03-29T17:18:39.048Z,49.58
2023-03-29T17:21:10.110Z,49.57
2023-03-29T17:23:42.160Z,49.53
2023-03-29T17:26:11.380Z,49.64
2023-03-29T17:28:40.435Z,49.72
2023-03-29T17:31:09.757Z,49.76
2023-03-29T17:33:39.069Z,50.05
2023-03-29T17:36:10.576Z,50.14
2023-03-29T17:39:02.972Z,50.15
2023-03-29T17:41:32.233Z,50.29
2023-03-29T17:44:01.440Z,50.32
2023-03-29T17:46:37.933Z,50.47
2023-03-29T17:49:07.332Z,50.61
2023-03-29T17:51:36.769Z,50.63
2023-03-29T17:54:06.154Z,50.83
2023-03-29T17:56:35.510Z,51.03
2023-03-29T17:59:04.705Z,51.17
2023-03-29T18:01:35.346Z,51.49
2023-03-29T18:04:05.593Z,51.51
2023-03-29T18:06:34.916Z,51.64
2023-03-29T18:09:04.902Z,51.65
2023-03-29T18:11:34.174Z,51.89
2023-03-29T18:14:23.923Z,51.89
2023-03-29T18:16:53.222Z,52.04
2023-03-29T18:19:22.570Z,52.04
2023-03-29T18:21:51.689Z,52.19
2023-03-29T18:24:20.758Z,52.19
2023-03-29T18:26:49.809Z,52.82
2023-03-29T18:29:19.037Z,52.60
2023-03-29T18:31:48.446Z,52.90
2023-03-29T18:34:17.732Z,53.08
2023-03-29T18:36:49.192Z,53.01
2023-03-29T18:39:41.245Z,53.08
2023-03-29T18:42:09.662Z,53.00
2023-03-29T18:44:41.451Z,53.44
2023-03-29T18:47:20.836Z,53.14
2023-03-29T18:49:50.489Z,53.48
2023-03-29T18:52:21.759Z,53.45
2023-03-29T18:54:51.165Z,53.49
2023-03-29T18:57:20.561Z,53.52
2023-03-29T18:59:49.946Z,53.61
2023-03-29T19:02:19.262Z,53.58
2023-03-29T19:04:48.625Z,54.04
2023-03-29T19:07:17.771Z,53.84
2023-03-29T19:09:47.105Z,53.94
2023-03-29T19:12:16.384Z,54.00
2023-03-29T19:14:45.529Z,53.88
2023-03-29T19:17:14.591Z,53.91
2023-03-29T19:19:43.741Z,54.01
2023-03-29T19:22:13.274Z,54.16
2023-03-29T19:25:03.364Z,54.19
2023-03-29T19:27:53.095Z,54.15
2023-03-29T19:30:22.330Z,54.02
2023-03-29T19:32:53.740Z,54.26
2023-03-29T19:35:22.948Z,54.45
2023-03-29T19:37:52.082Z,54.36
2023-03-29T19:40:21.156Z,54.44
2023-03-29T19:42:50.301Z,54.60
2023-03-29T19:45:39.324Z,54.59
2023-03-29T19:48:19.426Z,54.38
2023-03-29T19:50:50.800Z,54.71
2023-03-29T19:53:19.832Z,54.71
2023-03-29T19:55:48.878Z,54.72
2023-03-29T19:58:18.026Z,54.59
2023-03-29T20:00:47.121Z,54.75
2023-03-29T20:03:16.403Z,54.66
2023-03-29T20:05:46.009Z,54.80
2023-03-29T20:08:15.247Z,54.69
2023-03-29T20:10:44.309Z,54.74
2023-03-29T20:13:14.561Z,54.86
2023-03-29T20:15:46.764Z,54.89
2023-03-29T20:18:16.151Z,54.93
2023-03-29T20:20:45.260Z,54.97
2023-03-29T20:23:14.352Z,55.06
2023-03-29T20:25:43.473Z,55.01
2023-03-29T20:28:12.672Z,55.22
2023-03-29T20:30:41.916Z,55.36
2023-03-29T20:33:10.990Z,55.45
2023-03-29T20:35:40.040Z,55.29
2023-03-29T20:38:09.106Z,55.31
2023-03-29T20:40:38.338Z,55.36
2023-03-29T20:43:07.696Z,55.24
2023-03-29T20:45:46.392Z,55.44
2023-03-29T20:48:21.792Z,55.32
2023-03-29T20:50:51.334Z,55.34
2023-03-29T20:53:20.918Z,55.39
2023-03-29T20:55:50.025Z,55.54
2023-03-29T20:58:19.200Z,55.60
2023-03-29T21:00:48.297Z,55.66
2023-03-29T21:03:17.645Z,55.68
2023-03-29T21:05:53.404Z,55.66
2023-03-29T21:08:22.502Z,55.92
2023-03-29T21:10:51.506Z,55.85
2023-03-29T21:13:20.970Z,56.04
2023-03-29T21:15:50.079Z,55.95
2023-03-29T21:18:19.272Z,56.03
2023-03-29T21:20:48.586Z,56.06
2023-03-29T21:23:17.644Z,56.10
2023-03-29T21:25:46.662Z,56.12
2023-03-29T21:28:15.722Z,56.23
2023-03-29T21:30:44.861Z,56.10
2023-03-29T21:33:13.982Z,56.21
2023-03-29T21:35:43.084Z,56.24
2023-03-29T21:38:12.157Z,56.29
2023-03-29T21:40:41.241Z,56.35
2023-03-29T21:43:10.292Z,56.38
2023-03-29T21:45:39.367Z,56.36
2023-03-29T21:48:08.567Z,56.34
2023-03-29T21:50:37.689Z,56.42
2023-03-29T21:53:06.724Z,56.51
2023-03-29T21:55:35.785Z,56.38
2023-03-29T21:58:04.870Z,56.53
2023-03-29T22:00:34.085Z,56.50
2023-03-29T22:03:03.312Z,56.53
2023-03-29T22:05:32.356Z,56.68
2023-03-29T22:08:01.459Z,56.72
2023-03-29T22:10:30.594Z,56.67
2023-03-29T22:13:00.203Z,56.64
2023-03-29T22:15:29.325Z,56.77
2023-03-29T22:17:59.740Z,56.82
2023-03-29T22:20:29.051Z,56.86
2023-03-29T22:22:58.103Z,56.91
2023-03-29T22:25:27.199Z,56.86
2023-03-29T22:27:56.252Z,57.02
2023-03-29T22:30:25.325Z,57.07
2023-03-29T22:32:54.348Z,57.12
2023-03-29T22:35:23.437Z,57.21
2023-03-29T22:37:52.580Z,57.20
2023-03-29T22:40:21.774Z,57.22
2023-03-29T22:42:50.907Z,57.36
2023-03-29T22:45:19.943Z,57.42
2023-03-29T22:47:49.045Z,57.40
2023-03-29T22:50:18.315Z,57.56
2023-03-29T22:52:47.365Z,57.48
2023-03-29T22:55:16.798Z,57.67
2023-03-29T22:57:45.892Z,57.70
2023-03-29T23:00:15.181Z,57.84
2023-03-29T23:02:44.214Z,57.79
2023-03-29T23:05:13.313Z,57.83
2023-03-29T23:07:42.359Z,57.92
2023-03-29T23:10:12.263Z,58.11
2023-03-29T23:12:41.388Z,57.98
2023-03-29T23:15:12.537Z,58.04
2023-03-29T23:17:41.760Z,58.04
2023-03-29T23:20:11.606Z,58.16
2023-03-29T23:22:40.684Z,58.15
2023-03-29T23:25:11.592Z,58.27
2023-03-29T23:27:40.798Z,58.36
2023-03-29T23:30:10.392Z,58.28
2023-03-29T23:32:39.471Z,58.49
2023-03-29T23:35:10.284Z,58.64
2023-03-29T23:37:39.593Z,58.92
2023-03-29T23:40:11.012Z,58.98
2023-03-29T23:42:40.145Z,59.06
2023-03-29T23:45:11.413Z,59.05
2023-03-29T23:47:40.519Z,59.14
2023-03-29T23:50:11.109Z,59.03
2023-03-29T23:52:41.060Z,59.08
2023-03-29T23:55:13.278Z,59.14
2023-03-29T23:57:44.821Z,59.21
